Puvirnituq Airport
CYPX : now visible

Airfield :











YOU CAN JOIN US ON...

 
LOGIN :

Register | Disclaimer

   EN    FR    IT 

 









Legend :    VFR   Marginal VFR   IFR   Intensive IFR   Very Intensive IFR
Visi :
Ceiling :
>= 8 km
>= 3000ft
5 to 8 km
1000 to 3000 ft
1500m to 5 km
500 to 1000 ft
800 to 1500m
200 to 500 ft
< 800m
< 200 ft
Symbols :   Thunderstorms  Fog  Heavy snow  Heavy precipitations  Wind > 20 kt






- Airport Elevation : 74 ft
- IATA code : YPX


CYPX - Puvirnituq

CURRENT METAR :
  • 090805Z AUTO 17014KT 9SM BKN014 OVC040 12/11 A2967 RMK SLP050 DENSITY ALT 100FT

EXPIRED METARs :
  • 090700Z AUTO 11011KT 9SM OVC042 11/10 A2968 RMK PCPN 0.5MM PAST HR SLP052
  • 090638Z AUTO 10010KT 9SM BKN042 OVC048 11/10 A2968 RMK PCPN 0.5MM PAST HR SLP055
  • 090603Z AUTO 11008KT 3SM -RA BR FEW027 BKN037 BKN045 OVC055 10/10 A2970 RMK PRESFR SLP060
  • 090547Z AUTO 15008KT 5SM -RA BR FEW025 BKN048 BKN060 OVC078 11/10 A2971 RMK SLP065

TAF TAF CYPX
Valid from the 09 at 06:00 until the 09 at 18:00 UTC


090540Z 0906/0918 15010KT P6SM SCT009 OVC080
TEMPO 0906/0909 5SM -SHRA BR BKN009 OVC015
FM090900 17012KT P6SM -RA SCT008 OVC015
TEMPO 0909/0918 2SM -RA BR OVC005 RMK FCST BASED ON AUTO OBS. NXT FCST BY 091200Z
CZUL FIR / North America



MET'MAP, your aeronautical weather chart ! - Copyright ORBIFLY December 2007 - Disclaimer

ORBIFLY MET'MAP TEAM :

Programming & Development : Alexandra Zaïnal
Original concept : Baudouin d'Aumeries
Technical & hardware support : Manuel Goepfert
Assistance : Marc-Olivier Méhu




SOURCES & CREDITS :

   NOAA       Earth
Advisory